createdAt,value
2018-07-07T00:00:48.594Z,16.77
2018-07-07T00:03:18.425Z,16.78
2018-07-07T00:05:48.333Z,16.74
2018-07-07T00:08:18.106Z,16.83
2018-07-07T00:10:58.207Z,16.76
2018-07-07T00:13:27.987Z,16.70
2018-07-07T00:15:57.845Z,16.69
2018-07-07T00:18:27.530Z,16.66
2018-07-07T00:20:57.349Z,16.59
2018-07-07T00:23:27.177Z,16.60
2018-07-07T00:25:56.854Z,16.55
2018-07-07T00:28:26.578Z,16.54
2018-07-07T00:30:56.300Z,16.51
2018-07-07T00:33:26.035Z,16.49
2018-07-07T00:35:55.781Z,16.42
2018-07-07T00:38:25.570Z,16.36
2018-07-07T00:40:55.303Z,16.34
2018-07-07T00:43:25.028Z,16.30
2018-07-07T00:45:55.659Z,16.31
2018-07-07T00:48:25.443Z,16.27
2018-07-07T00:50:55.143Z,16.24
2018-07-07T00:53:24.901Z,16.20
2018-07-07T00:55:54.690Z,16.22
2018-07-07T00:58:24.396Z,16.21
2018-07-07T01:00:54.405Z,16.38
2018-07-07T01:03:24.119Z,16.34
2018-07-07T01:05:54.733Z,16.42
2018-07-07T01:08:24.453Z,16.39
2018-07-07T01:10:54.165Z,16.49
2018-07-07T01:13:23.925Z,16.55
2018-07-07T01:15:53.641Z,16.58
2018-07-07T01:18:23.374Z,16.71
2018-07-07T01:20:53.059Z,16.79
2018-07-07T01:23:22.681Z,16.87
2018-07-07T01:25:52.541Z,16.95
2018-07-07T01:28:22.241Z,17.03
2018-07-07T01:30:51.963Z,17.04
2018-07-07T01:33:21.613Z,17.08
2018-07-07T01:35:51.349Z,17.10
2018-07-07T01:38:21.037Z,17.09
2018-07-07T01:40:50.763Z,17.19
2018-07-07T01:43:20.541Z,17.19
2018-07-07T01:45:49.905Z,17.22
2018-07-07T01:48:19.675Z,17.26
2018-07-07T01:50:49.446Z,17.30
2018-07-07T01:53:19.169Z,17.30
2018-07-07T01:55:48.940Z,17.37
2018-07-07T01:58:18.657Z,17.48
2018-07-07T02:00:48.378Z,17.59
2018-07-07T02:03:18.068Z,17.66
2018-07-07T02:05:47.752Z,17.69
2018-07-07T02:08:17.525Z,17.77
2018-07-07T02:10:47.185Z,17.87
2018-07-07T02:13:16.886Z,17.86
2018-07-07T02:15:46.753Z,17.85
2018-07-07T02:18:16.463Z,17.83
2018-07-07T02:20:46.280Z,17.88
2018-07-07T02:23:16.079Z,17.75
2018-07-07T02:25:45.759Z,17.63
2018-07-07T02:28:15.458Z,17.52
2018-07-07T02:30:45.214Z,17.41
2018-07-07T02:33:14.885Z,17.27
2018-07-07T02:35:44.652Z,17.13
2018-07-07T02:38:14.350Z,17.10
2018-07-07T02:40:43.803Z,17.00
2018-07-07T02:43:13.517Z,17.01
2018-07-07T02:45:43.243Z,17.04
2018-07-07T02:48:12.943Z,16.88
2018-07-07T02:50:42.675Z,16.75
2018-07-07T02:53:12.418Z,16.66
2018-07-07T02:55:42.222Z,16.55
2018-07-07T02:58:11.897Z,16.49
2018-07-07T03:00:41.638Z,16.42
2018-07-07T03:03:11.330Z,16.41
2018-07-07T03:05:41.013Z,16.46
2018-07-07T03:08:10.862Z,16.51
2018-07-07T03:10:40.543Z,16.60
2018-07-07T03:13:10.253Z,16.63
2018-07-07T03:15:39.938Z,16.70
2018-07-07T03:18:09.692Z,16.79
2018-07-07T03:20:39.363Z,16.86
2018-07-07T03:23:09.084Z,16.90
2018-07-07T03:25:38.896Z,16.92
2018-07-07T03:28:08.614Z,16.88
2018-07-07T03:30:38.325Z,16.86
2018-07-07T03:33:08.087Z,16.88
2018-07-07T03:35:37.821Z,16.80
2018-07-07T03:38:07.576Z,16.68
2018-07-07T03:40:37.313Z,16.57
2018-07-07T03:43:07.385Z,16.48
2018-07-07T03:45:37.124Z,16.44
2018-07-07T03:48:06.784Z,16.49
2018-07-07T03:50:36.574Z,16.52
2018-07-07T03:53:06.308Z,16.53
2018-07-07T03:55:36.054Z,16.58
2018-07-07T03:58:05.804Z,16.61
2018-07-07T04:00:35.513Z,16.63
2018-07-07T04:03:05.240Z,16.69
2018-07-07T04:05:34.981Z,16.80
2018-07-07T04:08:04.725Z,16.95
2018-07-07T04:10:34.550Z,17.04
2018-07-07T04:13:04.201Z,17.12
2018-07-07T04:15:34.016Z,17.23
2018-07-07T04:18:03.711Z,17.35
2018-07-07T04:20:33.441Z,17.48
2018-07-07T04:23:03.148Z,17.57
2018-07-07T04:25:32.915Z,17.65
2018-07-07T04:28:02.836Z,17.68
2018-07-07T04:30:32.848Z,17.73
2018-07-07T04:33:02.209Z,17.82
2018-07-07T04:35:31.864Z,17.92
2018-07-07T04:38:02.601Z,17.98
2018-07-07T04:40:32.283Z,18.13
2018-07-07T04:43:02.001Z,18.23
2018-07-07T04:45:31.690Z,18.25
2018-07-07T04:48:01.386Z,18.34
2018-07-07T04:50:31.175Z,18.47
2018-07-07T04:53:00.940Z,18.55
2018-07-07T04:55:30.692Z,18.61
2018-07-07T04:58:00.426Z,18.61
2018-07-07T05:00:30.542Z,18.61
2018-07-07T05:03:00.854Z,18.65
2018-07-07T05:05:30.561Z,18.58
2018-07-07T05:08:00.291Z,18.66
2018-07-07T05:10:29.967Z,18.78
2018-07-07T05:12:59.725Z,18.80
2018-07-07T05:15:29.611Z,18.85
2018-07-07T05:17:59.430Z,19.02
2018-07-07T05:20:29.139Z,19.18
2018-07-07T05:22:58.878Z,19.23
2018-07-07T05:25:28.573Z,19.36
2018-07-07T05:27:58.613Z,19.56
2018-07-07T05:30:28.420Z,19.66
2018-07-07T05:32:58.178Z,19.92
2018-07-07T05:35:27.889Z,19.77
2018-07-07T05:37:57.709Z,19.63
2018-07-07T05:40:27.445Z,19.56
2018-07-07T05:42:57.331Z,19.52
2018-07-07T05:45:27.035Z,19.62
2018-07-07T05:47:56.766Z,19.76
2018-07-07T05:50:26.528Z,19.71
2018-07-07T05:52:56.223Z,19.69
2018-07-07T05:55:25.940Z,19.91
2018-07-07T05:57:55.710Z,20.13
2018-07-07T06:00:25.474Z,20.30
2018-07-07T06:02:55.247Z,20.10
2018-07-07T06:05:25.009Z,20.18
2018-07-07T06:07:55.001Z,20.48
2018-07-07T06:10:24.739Z,20.49
2018-07-07T06:12:54.393Z,20.52
2018-07-07T06:15:24.101Z,20.75
2018-07-07T06:17:53.821Z,20.90
2018-07-07T06:20:23.505Z,21.01
2018-07-07T06:22:53.541Z,21.53
2018-07-07T06:25:23.291Z,21.95
2018-07-07T06:27:52.625Z,22.25
2018-07-07T06:30:22.385Z,21.95
2018-07-07T06:32:52.207Z,21.71
2018-07-07T06:35:21.929Z,21.68
2018-07-07T06:37:51.719Z,22.16
2018-07-07T06:40:21.513Z,22.42
2018-07-07T06:42:51.252Z,22.67
2018-07-07T06:45:21.037Z,23.06
2018-07-07T06:47:50.771Z,23.09
2018-07-07T06:50:20.479Z,22.56
2018-07-07T06:52:50.253Z,22.78
2018-07-07T06:55:20.058Z,23.40
2018-07-07T06:57:49.813Z,23.56
2018-07-07T07:00:19.565Z,23.28
2018-07-07T07:02:49.306Z,22.89
2018-07-07T07:05:18.658Z,23.41
2018-07-07T07:07:48.387Z,23.53
2018-07-07T07:10:18.059Z,23.58
2018-07-07T07:12:47.775Z,24.51
2018-07-07T07:15:17.497Z,24.77
2018-07-07T07:17:47.238Z,25.04
2018-07-07T07:20:16.939Z,25.78
2018-07-07T07:22:46.632Z,24.96
2018-07-07T07:25:16.506Z,26.50
2018-07-07T07:27:46.178Z,26.66
2018-07-07T07:30:15.924Z,26.60
2018-07-07T07:32:45.629Z,25.96
2018-07-07T07:35:15.337Z,26.01
2018-07-07T07:37:45.002Z,28.06
2018-07-07T07:40:14.748Z,27.41
2018-07-07T07:42:44.471Z,27.74
2018-07-07T07:45:14.197Z,28.95
2018-07-07T07:47:43.874Z,29.27
2018-07-07T07:50:13.630Z,29.92
2018-07-07T07:52:43.401Z,28.91
2018-07-07T07:55:13.405Z,30.32
2018-07-07T07:57:43.174Z,30.82
2018-07-07T08:00:13.041Z,30.36
2018-07-07T08:02:42.787Z,30.44
2018-07-07T08:05:12.654Z,30.14
2018-07-07T08:07:42.331Z,29.74
2018-07-07T08:10:12.090Z,28.23
2018-07-07T08:12:41.768Z,28.82
2018-07-07T08:15:11.494Z,28.18
2018-07-07T08:17:41.232Z,29.62
2018-07-07T08:20:11.214Z,29.36
2018-07-07T08:22:41.067Z,28.90
2018-07-07T08:25:10.678Z,29.33
2018-07-07T08:27:40.391Z,29.49
2018-07-07T08:30:10.103Z,29.27
2018-07-07T08:32:39.811Z,28.93
2018-07-07T08:35:09.512Z,28.65
2018-07-07T08:37:38.912Z,29.08
2018-07-07T08:40:08.771Z,30.37
2018-07-07T08:42:38.498Z,29.46
2018-07-07T08:45:08.413Z,30.44
2018-07-07T08:47:38.069Z,31.26
2018-07-07T08:50:08.194Z,31.44
2018-07-07T08:52:37.993Z,31.72
2018-07-07T08:55:07.779Z,32.05
2018-07-07T08:57:37.490Z,31.28
2018-07-07T09:00:07.318Z,31.73
2018-07-07T09:02:37.029Z,31.43
2018-07-07T09:05:06.836Z,32.91
2018-07-07T09:07:36.546Z,32.66
2018-07-07T09:10:06.518Z,32.45
2018-07-07T09:12:36.264Z,32.61
2018-07-07T09:15:05.984Z,33.79
2018-07-07T09:17:35.733Z,34.18
2018-07-07T09:20:05.717Z,33.76
2018-07-07T09:22:35.509Z,32.07
2018-07-07T09:25:05.351Z,33.42
2018-07-07T09:27:35.132Z,32.87
2018-07-07T09:30:05.343Z,33.75
2018-07-07T09:32:35.458Z,32.16
2018-07-07T09:35:05.636Z,33.41
2018-07-07T09:37:35.291Z,33.62
2018-07-07T09:40:05.211Z,33.51
2018-07-07T09:42:34.998Z,33.73
2018-07-07T09:45:04.785Z,34.60
2018-07-07T09:47:34.660Z,33.10
2018-07-07T09:50:04.772Z,33.72
2018-07-07T09:52:34.572Z,34.28
2018-07-07T09:55:04.327Z,35.14
2018-07-07T09:57:34.038Z,35.12
2018-07-07T10:00:03.847Z,34.96
2018-07-07T10:02:33.927Z,34.91
2018-07-07T10:05:03.983Z,34.24
2018-07-07T10:07:33.734Z,34.56
2018-07-07T10:10:03.558Z,34.09
2018-07-07T10:12:33.496Z,33.29
2018-07-07T10:15:03.239Z,33.34
2018-07-07T10:17:32.952Z,33.56
2018-07-07T10:20:02.689Z,32.91
2018-07-07T10:22:32.127Z,34.55
2018-07-07T10:25:02.745Z,34.71
2018-07-07T10:27:32.590Z,35.22
2018-07-07T10:30:02.310Z,33.99
2018-07-07T10:32:32.094Z,33.12
2018-07-07T10:35:01.778Z,34.38
2018-07-07T10:37:31.553Z,33.85
2018-07-07T10:40:01.296Z,34.99
2018-07-07T10:42:31.187Z,34.98
2018-07-07T10:45:00.978Z,35.18
2018-07-07T10:47:30.749Z,33.26
2018-07-07T10:50:00.544Z,33.43
2018-07-07T10:52:30.477Z,34.02
2018-07-07T10:55:00.252Z,32.79
2018-07-07T10:57:30.024Z,33.98
2018-07-07T10:59:59.541Z,33.74
2018-07-07T11:02:29.357Z,33.59
2018-07-07T11:04:59.078Z,33.73
2018-07-07T11:07:28.923Z,34.04
2018-07-07T11:09:58.801Z,33.85
2018-07-07T11:12:28.570Z,33.23
2018-07-07T11:14:58.439Z,33.96
2018-07-07T11:17:28.199Z,33.44
2018-07-07T11:19:58.027Z,33.27
2018-07-07T11:22:27.756Z,33.70
2018-07-07T11:24:57.687Z,34.00
2018-07-07T11:27:27.481Z,33.53
2018-07-07T11:29:57.221Z,34.98
2018-07-07T11:32:26.955Z,34.14
2018-07-07T11:34:56.729Z,32.98
2018-07-07T11:37:26.671Z,33.27
2018-07-07T11:39:56.572Z,34.25
2018-07-07T11:42:26.392Z,33.42
2018-07-07T11:44:56.355Z,33.74
2018-07-07T11:47:26.252Z,32.76
2018-07-07T11:49:56.040Z,33.31
2018-07-07T11:52:25.810Z,32.91
2018-07-07T11:54:55.725Z,33.62
2018-07-07T11:57:25.503Z,33.58
2018-07-07T11:59:55.250Z,33.68
2018-07-07T12:02:24.993Z,33.86
2018-07-07T12:04:54.816Z,33.72
2018-07-07T12:07:24.502Z,32.77
2018-07-07T12:09:54.351Z,32.66
2018-07-07T12:12:24.054Z,33.19
2018-07-07T12:14:53.850Z,34.28
2018-07-07T12:17:23.585Z,33.25
2018-07-07T12:19:53.348Z,33.07
2018-07-07T12:22:22.772Z,33.18
2018-07-07T12:24:52.561Z,33.59
2018-07-07T12:27:22.274Z,33.00
2018-07-07T12:29:52.014Z,32.44
2018-07-07T12:32:21.859Z,32.70
2018-07-07T12:34:51.752Z,32.78
2018-07-07T12:37:21.472Z,32.94
2018-07-07T12:39:51.344Z,33.50
2018-07-07T12:42:21.226Z,32.69
2018-07-07T12:44:51.011Z,32.04
2018-07-07T12:47:20.700Z,32.71
2018-07-07T12:49:50.796Z,33.21
2018-07-07T12:52:20.467Z,33.04
2018-07-07T12:54:50.143Z,32.76
2018-07-07T12:57:19.854Z,32.92
2018-07-07T12:59:49.534Z,32.54
2018-07-07T13:02:19.279Z,32.23
2018-07-07T13:04:48.993Z,31.76
2018-07-07T13:07:18.704Z,32.24
2018-07-07T13:09:48.495Z,31.64
2018-07-07T13:12:18.301Z,32.99
2018-07-07T13:14:48.063Z,33.02
2018-07-07T13:17:17.903Z,32.66
2018-07-07T13:19:47.654Z,32.36
2018-07-07T13:22:17.441Z,32.34
2018-07-07T13:24:47.122Z,32.05
2018-07-07T13:27:16.826Z,32.90
2018-07-07T13:29:46.198Z,32.53
2018-07-07T13:32:16.033Z,32.51
2018-07-07T13:34:45.736Z,32.39
2018-07-07T13:37:15.464Z,32.49
2018-07-07T13:39:45.281Z,32.31
2018-07-07T13:42:15.082Z,32.11
2018-07-07T13:44:45.097Z,32.95
2018-07-07T13:47:14.924Z,32.88
2018-07-07T13:49:44.869Z,32.82
2018-07-07T13:52:14.259Z,33.34
2018-07-07T13:54:44.088Z,33.44
2018-07-07T13:57:13.481Z,33.54
2018-07-07T13:59:43.250Z,32.89
2018-07-07T14:02:12.952Z,32.63
2018-07-07T14:04:42.686Z,32.65
2018-07-07T14:07:12.413Z,32.36
2018-07-07T14:09:42.215Z,33.13
2018-07-07T14:12:11.992Z,33.14
2018-07-07T14:14:41.738Z,32.85
2018-07-07T14:17:11.572Z,32.62
2018-07-07T14:19:41.204Z,32.71
2018-07-07T14:22:11.101Z,32.37
2018-07-07T14:24:40.842Z,33.12
2018-07-07T14:27:10.574Z,33.05
2018-07-07T14:29:40.413Z,33.08
2018-07-07T14:32:10.290Z,33.23
2018-07-07T14:34:40.229Z,33.13
2018-07-07T14:37:09.660Z,32.81
2018-07-07T14:39:56.869Z,33.28
2018-07-07T14:42:48.907Z,33.01
2018-07-07T14:45:25.632Z,33.15
2018-07-07T14:47:56.426Z,33.12
2018-07-07T14:50:26.566Z,32.87
2018-07-07T14:52:56.321Z,32.82
2018-07-07T14:55:28.974Z,32.57
2018-07-07T14:57:58.819Z,32.33
2018-07-07T15:00:29.293Z,33.28
2018-07-07T15:02:59.225Z,32.27
2018-07-07T15:05:28.911Z,32.55
2018-07-07T15:07:58.704Z,32.75
2018-07-07T15:10:28.541Z,32.67
2018-07-07T15:12:58.316Z,31.58
2018-07-07T15:15:28.841Z,31.56
2018-07-07T15:17:58.552Z,31.62
2018-07-07T15:20:28.266Z,31.57
2018-07-07T15:22:58.123Z,30.92
2018-07-07T15:25:27.817Z,31.33
2018-07-07T15:27:57.606Z,31.17
2018-07-07T15:30:27.405Z,31.70
2018-07-07T15:32:57.159Z,32.10
2018-07-07T15:35:26.533Z,31.53
2018-07-07T15:37:56.334Z,31.81
2018-07-07T15:40:26.276Z,32.17
2018-07-07T15:42:56.045Z,32.21
2018-07-07T15:45:25.847Z,31.78
2018-07-07T15:47:55.585Z,31.83
2018-07-07T15:50:25.388Z,30.84
2018-07-07T15:52:55.150Z,31.51
2018-07-07T15:55:24.955Z,30.65
2018-07-07T15:57:54.675Z,30.57
2018-07-07T16:00:24.518Z,31.24
2018-07-07T16:02:54.499Z,29.11
2018-07-07T16:05:24.265Z,28.44
2018-07-07T16:07:54.122Z,28.81
2018-07-07T16:10:23.957Z,28.77
2018-07-07T16:12:53.673Z,27.98
2018-07-07T16:15:23.463Z,27.73
2018-07-07T16:17:53.194Z,28.33
2018-07-07T16:20:22.949Z,28.24
2018-07-07T16:22:52.693Z,28.04
2018-07-07T16:25:22.504Z,27.70
2018-07-07T16:27:52.189Z,27.25
2018-07-07T16:30:21.867Z,27.45
2018-07-07T16:32:51.550Z,27.41
2018-07-07T16:35:21.433Z,27.66
2018-07-07T16:37:51.313Z,27.64
2018-07-07T16:40:21.103Z,27.31
2018-07-07T16:42:51.443Z,27.17
2018-07-07T16:45:21.290Z,26.76
2018-07-07T16:47:51.102Z,26.45
2018-07-07T16:50:21.036Z,26.46
2018-07-07T16:52:50.873Z,26.56
2018-07-07T16:55:20.677Z,26.82
2018-07-07T16:57:50.499Z,26.66
2018-07-07T17:00:20.383Z,26.46
2018-07-07T17:02:50.906Z,26.39
2018-07-07T17:05:20.690Z,26.44
2018-07-07T17:07:50.781Z,26.53
2018-07-07T17:10:21.062Z,26.65
2018-07-07T17:12:50.941Z,26.73
2018-07-07T17:15:21.050Z,26.65
2018-07-07T17:17:50.847Z,26.33
2018-07-07T17:20:20.770Z,26.14
2018-07-07T17:22:52.001Z,25.92
2018-07-07T17:25:22.290Z,26.00
2018-07-07T17:27:52.243Z,26.12
2018-07-07T17:30:24.142Z,26.25
2018-07-07T17:32:55.224Z,26.21
2018-07-07T17:35:31.408Z,26.13
2018-07-07T17:38:01.380Z,26.13
2018-07-07T17:40:31.508Z,26.14
2018-07-07T17:43:02.322Z,26.18
2018-07-07T17:45:32.885Z,26.02
2018-07-07T17:48:02.853Z,26.07
2018-07-07T17:50:32.622Z,25.97
2018-07-07T17:53:04.320Z,26.14
2018-07-07T17:55:34.240Z,26.20
2018-07-07T17:58:04.516Z,25.93
2018-07-07T18:00:34.372Z,25.91
2018-07-07T18:03:04.817Z,25.86
2018-07-07T18:05:34.511Z,25.94
2018-07-07T18:08:04.264Z,26.01
2018-07-07T18:10:34.070Z,25.69
2018-07-07T18:13:04.069Z,25.56
2018-07-07T18:15:33.871Z,25.06
2018-07-07T18:18:03.636Z,24.99
2018-07-07T18:20:33.575Z,24.89
2018-07-07T18:23:03.280Z,24.92
2018-07-07T18:25:33.046Z,24.76
2018-07-07T18:28:04.666Z,24.68
2018-07-07T18:30:37.101Z,24.48
2018-07-07T18:33:08.558Z,24.56
2018-07-07T18:35:48.534Z,24.49
2018-07-07T18:38:18.698Z,24.51
2018-07-07T18:40:52.119Z,24.37
2018-07-07T18:43:22.222Z,24.41
2018-07-07T18:45:52.601Z,24.27
2018-07-07T18:48:22.321Z,24.27
2018-07-07T18:50:52.914Z,24.21
2018-07-07T18:53:22.671Z,23.84
2018-07-07T18:55:54.585Z,23.79
2018-07-07T18:58:24.450Z,23.75
2018-07-07T19:03:23.516Z,23.51
2018-07-07T19:05:53.885Z,23.49
2018-07-07T19:08:23.728Z,23.21
2018-07-07T19:10:54.699Z,23.36
2018-07-07T19:13:24.504Z,23.44
2018-07-07T19:15:55.261Z,23.16
2018-07-07T19:18:25.578Z,23.03
2018-07-07T19:21:00.500Z,22.85
2018-07-07T19:23:35.472Z,22.77
2018-07-07T19:26:10.601Z,22.72
2018-07-07T19:28:40.041Z,22.49
2018-07-07T19:31:09.736Z,22.38
2018-07-07T19:33:44.563Z,22.47
2018-07-07T19:36:19.358Z,22.38
2018-07-07T19:38:52.464Z,22.00
2018-07-07T19:41:22.695Z,21.88
2018-07-07T19:43:52.544Z,21.80
2018-07-07T19:46:22.415Z,21.68
2018-07-07T19:48:52.203Z,21.77
2018-07-07T19:51:21.902Z,21.67
2018-07-07T19:53:52.039Z,21.72
2018-07-07T19:56:22.518Z,21.67
2018-07-07T19:58:52.245Z,21.87
2018-07-07T20:01:22.019Z,21.60
2018-07-07T20:03:51.803Z,21.55
2018-07-07T20:06:21.629Z,21.61
2018-07-07T20:08:51.330Z,21.53
2018-07-07T20:11:21.091Z,21.40
2018-07-07T20:13:50.837Z,21.29
2018-07-07T20:17:00.660Z,21.13
2018-07-07T20:20:43.525Z,21.06
2018-07-07T20:23:15.212Z,20.90
2018-07-07T20:25:49.906Z,20.66
2018-07-07T20:28:25.030Z,20.51
2018-07-07T20:30:59.517Z,20.69
2018-07-07T20:33:29.784Z,20.67
2018-07-07T20:35:59.527Z,20.58
2018-07-07T20:38:29.305Z,20.42
2018-07-07T20:40:59.698Z,20.28
2018-07-07T20:43:29.465Z,20.23
2018-07-07T20:45:59.259Z,19.99
2018-07-07T20:48:29.648Z,19.78
2018-07-07T20:50:59.339Z,19.72
2018-07-07T20:53:28.884Z,19.53
2018-07-07T20:56:00.100Z,19.40
2018-07-07T20:58:29.944Z,19.30
2018-07-07T21:01:02.008Z,19.16
2018-07-07T21:03:31.811Z,19.23
2018-07-07T21:06:01.499Z,19.14
2018-07-07T21:08:31.400Z,19.10
2018-07-07T21:11:02.379Z,19.06
2018-07-07T21:13:32.105Z,19.00
2018-07-07T21:16:02.033Z,18.94
2018-07-07T21:18:31.844Z,18.87
2018-07-07T21:21:04.208Z,18.86
2018-07-07T21:23:34.703Z,18.82
2018-07-07T21:26:06.709Z,18.76
2018-07-07T21:28:36.667Z,18.73
2018-07-07T21:31:06.796Z,18.67
2018-07-07T21:33:36.913Z,18.69
2018-07-07T21:36:09.444Z,18.56
2018-07-07T21:38:39.524Z,18.43
2018-07-07T21:41:10.774Z,18.32
2018-07-07T21:43:42.481Z,18.27
2018-07-07T21:46:15.986Z,18.25
2018-07-07T21:48:45.817Z,18.08
2018-07-07T21:51:15.614Z,18.00
2018-07-07T21:53:45.670Z,17.91
2018-07-07T21:56:15.377Z,17.83
2018-07-07T21:58:45.885Z,17.78
2018-07-07T22:01:41.379Z,17.73
2018-07-07T22:04:21.013Z,17.68
2018-07-07T22:07:57.259Z,17.73
2018-07-07T22:10:27.260Z,17.70
2018-07-07T22:12:56.975Z,17.69
2018-07-07T22:15:29.586Z,17.61
2018-07-07T22:17:59.358Z,17.58
2018-07-07T22:20:35.378Z,17.57
2018-07-07T22:23:05.253Z,17.57
2018-07-07T22:25:34.991Z,17.54
2018-07-07T22:28:05.016Z,17.51
2018-07-07T22:30:34.858Z,17.43
2018-07-07T22:33:09.815Z,17.33
2018-07-07T22:35:44.743Z,17.28
2018-07-07T22:38:19.666Z,17.26
2018-07-07T22:40:49.485Z,17.20
2018-07-07T22:43:19.190Z,17.10
2018-07-07T22:45:48.965Z,17.08
2018-07-07T22:48:18.754Z,17.11
2018-07-07T22:50:48.525Z,17.13
2018-07-07T22:53:18.493Z,17.09
2018-07-07T22:55:48.259Z,16.99
2018-07-07T22:58:18.424Z,16.85
2018-07-07T23:00:48.146Z,16.81
2018-07-07T23:03:17.911Z,16.76
2018-07-07T23:05:47.593Z,16.74
2018-07-07T23:08:17.288Z,16.75
2018-07-07T23:10:47.191Z,16.75
2018-07-07T23:13:16.961Z,16.79
2018-07-07T23:15:46.782Z,16.63
2018-07-07T23:18:16.502Z,16.54
2018-07-07T23:20:46.228Z,16.45
2018-07-07T23:23:16.012Z,16.35
2018-07-07T23:25:45.874Z,16.27
2018-07-07T23:28:15.508Z,16.14
2018-07-07T23:30:45.217Z,16.01
2018-07-07T23:33:14.976Z,15.91
2018-07-07T23:35:44.745Z,15.86
2018-07-07T23:38:14.685Z,15.76
2018-07-07T23:40:44.472Z,15.79
2018-07-07T23:43:14.211Z,15.80
2018-07-07T23:45:43.934Z,15.77
2018-07-07T23:48:13.694Z,15.79
2018-07-07T23:50:43.401Z,15.75
2018-07-07T23:53:12.760Z,15.74
2018-07-07T23:55:42.711Z,15.65
2018-07-07T23:58:12.425Z,15.76
